sensor_id;sensor_type;location;lat;lon;timestamp;P1;durP1;ratioP1;P2;durP2;ratioP2
10335;SDS011;5213;53.548;9.930;2023-06-10T00:00:41;8.63;;;4.85;;
10335;SDS011;5213;53.548;9.930;2023-06-10T00:03:08;6.93;;;4.55;;
10335;SDS011;5213;53.548;9.930;2023-06-10T00:05:34;9.45;;;4.70;;
10335;SDS011;5213;53.548;9.930;2023-06-10T00:08:00;9.13;;;4.95;;
10335;SDS011;5213;53.548;9.930;2023-06-10T00:10:32;8.93;;;4.78;;
10335;SDS011;5213;53.548;9.930;2023-06-10T00:12:59;9.80;;;4.72;;
10335;SDS011;5213;53.548;9.930;2023-06-10T00:15:26;10.00;;;5.22;;
10335;SDS011;5213;53.548;9.930;2023-06-10T00:17:52;8.60;;;4.97;;
10335;SDS011;5213;53.548;9.930;2023-06-10T00:20:19;6.68;;;4.80;;
10335;SDS011;5213;53.548;9.930;2023-06-10T00:22:48;9.43;;;5.03;;
10335;SDS011;5213;53.548;9.930;2023-06-10T00:25:15;7.38;;;4.82;;
10335;SDS011;5213;53.548;9.930;2023-06-10T00:27:41;7.93;;;5.45;;
10335;SDS011;5213;53.548;9.930;2023-06-10T00:30:07;6.93;;;4.78;;
10335;SDS011;5213;53.548;9.930;2023-06-10T00:32:34;6.75;;;4.80;;
10335;SDS011;5213;53.548;9.930;2023-06-10T00:35:00;8.48;;;4.47;;
10335;SDS011;5213;53.548;9.930;2023-06-10T00:37:26;5.70;;;4.72;;
10335;SDS011;5213;53.548;9.930;2023-06-10T00:39:54;7.80;;;4.50;;
10335;SDS011;5213;53.548;9.930;2023-06-10T00:42:20;10.77;;;4.63;;
10335;SDS011;5213;53.548;9.930;2023-06-10T00:44:49;7.10;;;4.68;;
10335;SDS011;5213;53.548;9.930;2023-06-10T00:47:15;7.32;;;4.45;;
10335;SDS011;5213;53.548;9.930;2023-06-10T00:49:41;7.20;;;3.65;;
10335;SDS011;5213;53.548;9.930;2023-06-10T00:52:07;9.95;;;4.43;;
10335;SDS011;5213;53.548;9.930;2023-06-10T00:54:33;8.23;;;4.03;;
10335;SDS011;5213;53.548;9.930;2023-06-10T00:57:00;7.28;;;3.88;;
10335;SDS011;5213;53.548;9.930;2023-06-10T00:59:28;5.75;;;3.88;;
10335;SDS011;5213;53.548;9.930;2023-06-10T01:01:54;9.15;;;4.18;;
10335;SDS011;5213;53.548;9.930;2023-06-10T01:04:21;6.07;;;3.47;;
10335;SDS011;5213;53.548;9.930;2023-06-10T01:11:58;9.75;;;3.60;;
10335;SDS011;5213;53.548;9.930;2023-06-10T01:14:28;6.35;;;3.83;;
10335;SDS011;5213;53.548;9.930;2023-06-10T01:16:56;7.57;;;3.60;;
10335;SDS011;5213;53.548;9.930;2023-06-10T01:19:25;5.10;;;3.60;;
10335;SDS011;5213;53.548;9.930;2023-06-10T01:21:51;6.57;;;4.13;;
10335;SDS011;5213;53.548;9.930;2023-06-10T01:24:19;7.03;;;3.97;;
10335;SDS011;5213;53.548;9.930;2023-06-10T01:26:47;4.25;;;3.60;;
10335;SDS011;5213;53.548;9.930;2023-06-10T01:29:14;4.47;;;3.53;;
10335;SDS011;5213;53.548;9.930;2023-06-10T01:31:54;5.38;;;3.15;;
10335;SDS011;5213;53.548;9.930;2023-06-10T01:34:22;5.13;;;3.70;;
10335;SDS011;5213;53.548;9.930;2023-06-10T01:36:49;6.35;;;3.60;;
10335;SDS011;5213;53.548;9.930;2023-06-10T01:39:16;6.45;;;3.47;;
10335;SDS011;5213;53.548;9.930;2023-06-10T01:41:43;4.72;;;3.47;;
10335;SDS011;5213;53.548;9.930;2023-06-10T01:44:10;5.00;;;3.53;;
10335;SDS011;5213;53.548;9.930;2023-06-10T01:46:36;4.80;;;3.65;;
10335;SDS011;5213;53.548;9.930;2023-06-10T01:49:02;7.65;;;3.35;;
10335;SDS011;5213;53.548;9.930;2023-06-10T01:51:28;6.93;;;3.53;;
10335;SDS011;5213;53.548;9.930;2023-06-10T01:53:56;7.07;;;3.08;;
10335;SDS011;5213;53.548;9.930;2023-06-10T01:56:22;6.25;;;3.25;;
10335;SDS011;5213;53.548;9.930;2023-06-10T01:58:48;5.95;;;3.50;;
10335;SDS011;5213;53.548;9.930;2023-06-10T02:01:14;5.85;;;3.00;;
10335;SDS011;5213;53.548;9.930;2023-06-10T02:03:40;5.10;;;3.00;;
10335;SDS011;5213;53.548;9.930;2023-06-10T02:06:06;7.57;;;3.53;;
10335;SDS011;5213;53.548;9.930;2023-06-10T02:08:32;9.30;;;3.80;;
10335;SDS011;5213;53.548;9.930;2023-06-10T02:10:58;4.60;;;2.90;;
10335;SDS011;5213;53.548;9.930;2023-06-10T02:13:24;4.78;;;3.13;;
10335;SDS011;5213;53.548;9.930;2023-06-10T02:15:50;4.10;;;3.20;;
10335;SDS011;5213;53.548;9.930;2023-06-10T02:18:19;5.95;;;3.45;;
10335;SDS011;5213;53.548;9.930;2023-06-10T02:20:45;4.10;;;2.78;;
10335;SDS011;5213;53.548;9.930;2023-06-10T02:23:12;6.97;;;2.97;;
10335;SDS011;5213;53.548;9.930;2023-06-10T02:25:38;3.83;;;2.70;;
10335;SDS011;5213;53.548;9.930;2023-06-10T02:28:04;5.78;;;3.20;;
10335;SDS011;5213;53.548;9.930;2023-06-10T02:30:30;6.03;;;3.08;;
10335;SDS011;5213;53.548;9.930;2023-06-10T02:32:56;5.18;;;2.90;;
10335;SDS011;5213;53.548;9.930;2023-06-10T02:35:24;6.28;;;2.83;;
10335;SDS011;5213;53.548;9.930;2023-06-10T02:37:50;6.60;;;2.92;;
10335;SDS011;5213;53.548;9.930;2023-06-10T02:40:16;6.18;;;2.90;;
10335;SDS011;5213;53.548;9.930;2023-06-10T02:42:42;6.65;;;2.80;;
10335;SDS011;5213;53.548;9.930;2023-06-10T02:45:08;5.15;;;2.80;;
10335;SDS011;5213;53.548;9.930;2023-06-10T02:47:34;8.05;;;3.13;;
10335;SDS011;5213;53.548;9.930;2023-06-10T02:50:00;7.70;;;2.90;;
10335;SDS011;5213;53.548;9.930;2023-06-10T02:52:26;6.18;;;2.70;;
10335;SDS011;5213;53.548;9.930;2023-06-10T02:54:52;6.60;;;2.92;;
10335;SDS011;5213;53.548;9.930;2023-06-10T02:57:18;4.78;;;2.47;;
10335;SDS011;5213;53.548;9.930;2023-06-10T02:59:44;6.60;;;2.80;;
10335;SDS011;5213;53.548;9.930;2023-06-10T03:02:10;4.82;;;2.53;;
10335;SDS011;5213;53.548;9.930;2023-06-10T03:04:37;3.72;;;2.45;;
10335;SDS011;5213;53.548;9.930;2023-06-10T03:07:03;7.68;;;2.80;;
10335;SDS011;5213;53.548;9.930;2023-06-10T03:09:32;5.72;;;2.45;;
10335;SDS011;5213;53.548;9.930;2023-06-10T03:11:58;4.63;;;2.20;;
10335;SDS011;5213;53.548;9.930;2023-06-10T03:14:25;7.25;;;2.75;;
10335;SDS011;5213;53.548;9.930;2023-06-10T03:16:51;4.68;;;2.40;;
10335;SDS011;5213;53.548;9.930;2023-06-10T03:19:25;6.57;;;2.95;;
10335;SDS011;5213;53.548;9.930;2023-06-10T03:22:07;6.40;;;2.72;;
10335;SDS011;5213;53.548;9.930;2023-06-10T03:24:34;5.68;;;2.70;;
10335;SDS011;5213;53.548;9.930;2023-06-10T03:27:01;6.95;;;2.72;;
10335;SDS011;5213;53.548;9.930;2023-06-10T03:29:27;5.70;;;2.90;;
10335;SDS011;5213;53.548;9.930;2023-06-10T03:31:53;4.13;;;2.40;;
10335;SDS011;5213;53.548;9.930;2023-06-10T03:34:19;6.07;;;2.45;;
10335;SDS011;5213;53.548;9.930;2023-06-10T03:36:46;8.30;;;2.55;;
10335;SDS011;5213;53.548;9.930;2023-06-10T03:39:12;3.58;;;2.60;;
10335;SDS011;5213;53.548;9.930;2023-06-10T03:41:38;3.65;;;2.17;;
10335;SDS011;5213;53.548;9.930;2023-06-10T03:44:04;6.20;;;2.58;;
10335;SDS011;5213;53.548;9.930;2023-06-10T03:46:30;5.50;;;2.40;;
10335;SDS011;5213;53.548;9.930;2023-06-10T03:48:56;5.70;;;2.72;;
10335;SDS011;5213;53.548;9.930;2023-06-10T03:51:25;3.88;;;2.22;;
10335;SDS011;5213;53.548;9.930;2023-06-10T03:53:51;6.63;;;2.63;;
10335;SDS011;5213;53.548;9.930;2023-06-10T03:56:17;4.72;;;2.35;;
10335;SDS011;5213;53.548;9.930;2023-06-10T03:58:43;6.20;;;2.67;;
10335;SDS011;5213;53.548;9.930;2023-06-10T04:01:09;4.80;;;2.55;;
10335;SDS011;5213;53.548;9.930;2023-06-10T04:03:38;6.65;;;2.38;;
10335;SDS011;5213;53.548;9.930;2023-06-10T04:06:06;7.85;;;2.53;;
10335;SDS011;5213;53.548;9.930;2023-06-10T04:08:32;6.95;;;2.47;;
10335;SDS011;5213;53.548;9.930;2023-06-10T04:10:58;4.50;;;2.63;;
10335;SDS011;5213;53.548;9.930;2023-06-10T04:13:24;3.67;;;2.25;;
10335;SDS011;5213;53.548;9.930;2023-06-10T04:15:51;5.38;;;2.25;;
10335;SDS011;5213;53.548;9.930;2023-06-10T04:18:17;4.05;;;1.95;;
10335;SDS011;5213;53.548;9.930;2023-06-10T04:20:43;2.83;;;2.08;;
10335;SDS011;5213;53.548;9.930;2023-06-10T04:23:09;3.83;;;2.10;;
10335;SDS011;5213;53.548;9.930;2023-06-10T04:25:35;3.70;;;2.50;;
10335;SDS011;5213;53.548;9.930;2023-06-10T04:28:02;4.10;;;2.30;;
10335;SDS011;5213;53.548;9.930;2023-06-10T04:30:28;5.20;;;2.25;;
10335;SDS011;5213;53.548;9.930;2023-06-10T04:32:56;6.10;;;2.03;;
10335;SDS011;5213;53.548;9.930;2023-06-10T04:35:22;5.72;;;2.78;;
10335;SDS011;5213;53.548;9.930;2023-06-10T04:37:48;4.75;;;2.13;;
10335;SDS011;5213;53.548;9.930;2023-06-10T04:40:14;3.67;;;1.98;;
10335;SDS011;5213;53.548;9.930;2023-06-10T04:42:40;5.40;;;2.17;;
10335;SDS011;5213;53.548;9.930;2023-06-10T04:45:07;3.17;;;2.10;;
10335;SDS011;5213;53.548;9.930;2023-06-10T04:47:33;3.80;;;2.10;;
10335;SDS011;5213;53.548;9.930;2023-06-10T04:49:59;6.03;;;2.22;;
10335;SDS011;5213;53.548;9.930;2023-06-10T04:52:26;4.97;;;2.30;;
10335;SDS011;5213;53.548;9.930;2023-06-10T04:54:52;5.80;;;2.08;;
10335;SDS011;5213;53.548;9.930;2023-06-10T04:57:19;7.38;;;2.13;;
10335;SDS011;5213;53.548;9.930;2023-06-10T04:59:45;5.00;;;2.35;;
10335;SDS011;5213;53.548;9.930;2023-06-10T05:02:11;7.10;;;2.45;;
10335;SDS011;5213;53.548;9.930;2023-06-10T05:04:37;3.90;;;2.13;;
10335;SDS011;5213;53.548;9.930;2023-06-10T05:07:03;3.45;;;1.85;;
10335;SDS011;5213;53.548;9.930;2023-06-10T05:09:29;4.95;;;2.00;;
10335;SDS011;5213;53.548;9.930;2023-06-10T05:11:56;4.80;;;2.03;;
10335;SDS011;5213;53.548;9.930;2023-06-10T05:14:22;4.43;;;2.15;;
10335;SDS011;5213;53.548;9.930;2023-06-10T05:16:48;3.72;;;2.30;;
10335;SDS011;5213;53.548;9.930;2023-06-10T05:19:15;7.18;;;2.28;;
10335;SDS011;5213;53.548;9.930;2023-06-10T05:21:44;3.70;;;1.80;;
10335;SDS011;5213;53.548;9.930;2023-06-10T05:24:10;4.35;;;2.05;;
10335;SDS011;5213;53.548;9.930;2023-06-10T05:26:36;5.88;;;2.65;;
10335;SDS011;5213;53.548;9.930;2023-06-10T05:29:03;4.28;;;1.90;;
10335;SDS011;5213;53.548;9.930;2023-06-10T05:31:29;3.75;;;2.00;;
10335;SDS011;5213;53.548;9.930;2023-06-10T05:33:55;3.63;;;2.30;;
10335;SDS011;5213;53.548;9.930;2023-06-10T05:36:21;4.68;;;2.22;;
10335;SDS011;5213;53.548;9.930;2023-06-10T05:38:50;5.22;;;2.60;;
10335;SDS011;5213;53.548;9.930;2023-06-10T05:41:16;4.43;;;2.03;;
10335;SDS011;5213;53.548;9.930;2023-06-10T05:43:42;6.85;;;2.35;;
10335;SDS011;5213;53.548;9.930;2023-06-10T05:46:08;2.80;;;2.17;;
10335;SDS011;5213;53.548;9.930;2023-06-10T05:48:34;3.53;;;2.13;;
10335;SDS011;5213;53.548;9.930;2023-06-10T05:51:00;7.38;;;2.45;;
10335;SDS011;5213;53.548;9.930;2023-06-10T05:53:26;4.55;;;2.28;;
10335;SDS011;5213;53.548;9.930;2023-06-10T05:55:52;5.70;;;2.28;;
10335;SDS011;5213;53.548;9.930;2023-06-10T05:58:22;3.80;;;2.35;;
10335;SDS011;5213;53.548;9.930;2023-06-10T06:00:48;7.07;;;2.38;;
10335;SDS011;5213;53.548;9.930;2023-06-10T06:03:15;4.68;;;2.15;;
10335;SDS011;5213;53.548;9.930;2023-06-10T06:05:41;6.05;;;2.10;;
10335;SDS011;5213;53.548;9.930;2023-06-10T06:08:07;4.20;;;2.28;;
10335;SDS011;5213;53.548;9.930;2023-06-10T06:10:33;4.82;;;2.30;;
10335;SDS011;5213;53.548;9.930;2023-06-10T06:13:00;7.82;;;2.08;;
10335;SDS011;5213;53.548;9.930;2023-06-10T06:15:26;5.20;;;2.20;;
10335;SDS011;5213;53.548;9.930;2023-06-10T06:17:52;4.38;;;2.30;;
10335;SDS011;5213;53.548;9.930;2023-06-10T06:20:19;3.58;;;2.10;;
10335;SDS011;5213;53.548;9.930;2023-06-10T06:22:45;6.75;;;2.35;;
10335;SDS011;5213;53.548;9.930;2023-06-10T06:25:11;4.68;;;1.90;;
10335;SDS011;5213;53.548;9.930;2023-06-10T06:27:37;6.25;;;2.58;;
10335;SDS011;5213;53.548;9.930;2023-06-10T06:30:03;2.92;;;1.83;;
10335;SDS011;5213;53.548;9.930;2023-06-10T06:32:30;3.47;;;1.98;;
10335;SDS011;5213;53.548;9.930;2023-06-10T06:34:56;8.23;;;2.58;;
10335;SDS011;5213;53.548;9.930;2023-06-10T06:37:22;5.70;;;2.60;;
10335;SDS011;5213;53.548;9.930;2023-06-10T06:39:51;7.20;;;2.08;;
10335;SDS011;5213;53.548;9.930;2023-06-10T06:42:18;5.53;;;2.40;;
10335;SDS011;5213;53.548;9.930;2023-06-10T06:44:44;6.70;;;2.50;;
10335;SDS011;5213;53.548;9.930;2023-06-10T06:47:10;6.60;;;2.50;;
10335;SDS011;5213;53.548;9.930;2023-06-10T06:49:36;6.57;;;2.60;;
10335;SDS011;5213;53.548;9.930;2023-06-10T06:52:02;5.00;;;2.30;;
10335;SDS011;5213;53.548;9.930;2023-06-10T06:54:28;5.15;;;2.60;;
10335;SDS011;5213;53.548;9.930;2023-06-10T06:56:55;8.40;;;2.60;;
10335;SDS011;5213;53.548;9.930;2023-06-10T06:59:21;3.70;;;2.35;;
10335;SDS011;5213;53.548;9.930;2023-06-10T07:01:47;4.45;;;2.30;;
10335;SDS011;5213;53.548;9.930;2023-06-10T07:04:14;6.47;;;2.72;;
10335;SDS011;5213;53.548;9.930;2023-06-10T07:06:40;6.50;;;2.30;;
10335;SDS011;5213;53.548;9.930;2023-06-10T07:09:07;4.93;;;2.55;;
10335;SDS011;5213;53.548;9.930;2023-06-10T07:11:36;5.25;;;2.50;;
10335;SDS011;5213;53.548;9.930;2023-06-10T07:14:02;6.22;;;2.17;;
10335;SDS011;5213;53.548;9.930;2023-06-10T07:16:28;4.18;;;2.20;;
10335;SDS011;5213;53.548;9.930;2023-06-10T07:18:54;6.25;;;2.45;;
10335;SDS011;5213;53.548;9.930;2023-06-10T07:21:20;6.00;;;2.55;;
10335;SDS011;5213;53.548;9.930;2023-06-10T07:23:48;5.00;;;2.33;;
10335;SDS011;5213;53.548;9.930;2023-06-10T07:26:14;5.95;;;2.50;;
10335;SDS011;5213;53.548;9.930;2023-06-10T07:28:40;5.80;;;2.50;;
10335;SDS011;5213;53.548;9.930;2023-06-10T07:31:07;4.20;;;2.65;;
10335;SDS011;5213;53.548;9.930;2023-06-10T07:33:33;4.95;;;2.88;;
10335;SDS011;5213;53.548;9.930;2023-06-10T07:35:59;4.60;;;2.58;;
10335;SDS011;5213;53.548;9.930;2023-06-10T07:38:26;6.78;;;2.42;;
10335;SDS011;5213;53.548;9.930;2023-06-10T07:40:52;5.13;;;2.65;;
10335;SDS011;5213;53.548;9.930;2023-06-10T07:43:18;5.50;;;2.90;;
10335;SDS011;5213;53.548;9.930;2023-06-10T07:45:45;8.27;;;2.58;;
10335;SDS011;5213;53.548;9.930;2023-06-10T07:48:11;3.47;;;2.58;;
10335;SDS011;5213;53.548;9.930;2023-06-10T07:50:37;3.92;;;2.50;;
10335;SDS011;5213;53.548;9.930;2023-06-10T07:53:04;6.63;;;2.70;;
10335;SDS011;5213;53.548;9.930;2023-06-10T07:55:30;5.57;;;2.80;;
10335;SDS011;5213;53.548;9.930;2023-06-10T07:57:56;4.82;;;2.50;;
10335;SDS011;5213;53.548;9.930;2023-06-10T08:00:22;5.63;;;2.30;;
10335;SDS011;5213;53.548;9.930;2023-06-10T08:02:48;6.78;;;2.83;;
10335;SDS011;5213;53.548;9.930;2023-06-10T08:05:15;4.55;;;2.58;;
10335;SDS011;5213;53.548;9.930;2023-06-10T08:07:41;4.22;;;2.40;;
10335;SDS011;5213;53.548;9.930;2023-06-10T08:10:08;4.00;;;2.38;;
10335;SDS011;5213;53.548;9.930;2023-06-10T08:12:34;3.28;;;2.40;;
10335;SDS011;5213;53.548;9.930;2023-06-10T08:15:00;6.90;;;2.72;;
10335;SDS011;5213;53.548;9.930;2023-06-10T08:17:30;6.15;;;2.47;;
10335;SDS011;5213;53.548;9.930;2023-06-10T08:19:56;5.40;;;2.80;;
10335;SDS011;5213;53.548;9.930;2023-06-10T08:22:22;6.72;;;2.85;;
10335;SDS011;5213;53.548;9.930;2023-06-10T08:24:48;4.95;;;2.88;;
10335;SDS011;5213;53.548;9.930;2023-06-10T08:27:14;4.95;;;2.80;;
10335;SDS011;5213;53.548;9.930;2023-06-10T08:29:40;4.20;;;2.70;;
10335;SDS011;5213;53.548;9.930;2023-06-10T08:32:06;5.03;;;2.80;;
10335;SDS011;5213;53.548;9.930;2023-06-10T08:34:35;5.03;;;2.70;;
10335;SDS011;5213;53.548;9.930;2023-06-10T08:37:02;3.67;;;2.70;;
10335;SDS011;5213;53.548;9.930;2023-06-10T08:39:28;5.05;;;2.85;;
10335;SDS011;5213;53.548;9.930;2023-06-10T08:42:01;5.75;;;2.83;;
10335;SDS011;5213;53.548;9.930;2023-06-10T08:44:31;7.30;;;2.95;;
10335;SDS011;5213;53.548;9.930;2023-06-10T08:46:59;5.40;;;2.70;;
10335;SDS011;5213;53.548;9.930;2023-06-10T08:49:26;4.55;;;2.60;;
10335;SDS011;5213;53.548;9.930;2023-06-10T08:51:58;5.32;;;2.88;;
10335;SDS011;5213;53.548;9.930;2023-06-10T08:54:28;9.02;;;2.90;;
10335;SDS011;5213;53.548;9.930;2023-06-10T08:56:55;3.30;;;2.80;;
10335;SDS011;5213;53.548;9.930;2023-06-10T08:59:23;6.05;;;2.97;;
10335;SDS011;5213;53.548;9.930;2023-06-10T09:01:50;4.43;;;2.97;;
10335;SDS011;5213;53.548;9.930;2023-06-10T09:04:18;3.90;;;2.80;;
10335;SDS011;5213;53.548;9.930;2023-06-10T09:06:45;5.65;;;3.35;;
10335;SDS011;5213;53.548;9.930;2023-06-10T09:09:11;7.93;;;3.00;;
10335;SDS011;5213;53.548;9.930;2023-06-10T09:11:38;6.28;;;2.90;;
10335;SDS011;5213;53.548;9.930;2023-06-10T09:14:04;5.57;;;2.95;;
10335;SDS011;5213;53.548;9.930;2023-06-10T09:16:30;5.40;;;3.05;;
10335;SDS011;5213;53.548;9.930;2023-06-10T09:18:56;5.38;;;2.95;;
10335;SDS011;5213;53.548;9.930;2023-06-10T09:21:23;5.72;;;3.17;;
10335;SDS011;5213;53.548;9.930;2023-06-10T09:23:50;5.55;;;2.80;;
10335;SDS011;5213;53.548;9.930;2023-06-10T09:26:16;6.38;;;3.20;;
10335;SDS011;5213;53.548;9.930;2023-06-10T09:28:44;5.88;;;2.75;;
10335;SDS011;5213;53.548;9.930;2023-06-10T09:31:11;5.20;;;2.83;;
10335;SDS011;5213;53.548;9.930;2023-06-10T09:33:37;6.20;;;3.20;;
10335;SDS011;5213;53.548;9.930;2023-06-10T09:36:21;5.72;;;2.78;;
10335;SDS011;5213;53.548;9.930;2023-06-10T09:38:49;9.43;;;4.00;;
10335;SDS011;5213;53.548;9.930;2023-06-10T09:41:18;5.97;;;3.10;;
10335;SDS011;5213;53.548;9.930;2023-06-10T09:43:45;6.80;;;3.28;;
10335;SDS011;5213;53.548;9.930;2023-06-10T09:46:15;7.03;;;3.08;;
10335;SDS011;5213;53.548;9.930;2023-06-10T09:48:42;6.78;;;3.72;;
10335;SDS011;5213;53.548;9.930;2023-06-10T09:51:11;5.25;;;3.38;;
10335;SDS011;5213;53.548;9.930;2023-06-10T09:53:37;6.05;;;3.30;;
10335;SDS011;5213;53.548;9.930;2023-06-10T09:56:04;6.07;;;3.83;;
10335;SDS011;5213;53.548;9.930;2023-06-10T09:58:49;8.00;;;3.40;;
10335;SDS011;5213;53.548;9.930;2023-06-10T10:01:18;5.82;;;3.22;;
10335;SDS011;5213;53.548;9.930;2023-06-10T10:03:51;5.78;;;3.33;;
10335;SDS011;5213;53.548;9.930;2023-06-10T10:06:18;5.05;;;3.28;;
10335;SDS011;5213;53.548;9.930;2023-06-10T10:08:45;6.05;;;3.33;;
10335;SDS011;5213;53.548;9.930;2023-06-10T10:11:11;4.78;;;3.10;;
10335;SDS011;5213;53.548;9.930;2023-06-10T10:13:37;5.93;;;3.35;;
10335;SDS011;5213;53.548;9.930;2023-06-10T10:16:04;5.22;;;3.30;;
10335;SDS011;5213;53.548;9.930;2023-06-10T10:18:32;5.25;;;3.67;;
10335;SDS011;5213;53.548;9.930;2023-06-10T10:21:01;6.43;;;3.50;;
10335;SDS011;5213;53.548;9.930;2023-06-10T10:23:34;6.10;;;3.55;;
10335;SDS011;5213;53.548;9.930;2023-06-10T10:26:04;4.80;;;3.25;;
10335;SDS011;5213;53.548;9.930;2023-06-10T10:28:34;5.43;;;3.33;;
10335;SDS011;5213;53.548;9.930;2023-06-10T10:31:06;4.32;;;3.20;;
10335;SDS011;5213;53.548;9.930;2023-06-10T10:36:04;4.65;;;3.33;;
10335;SDS011;5213;53.548;9.930;2023-06-10T10:38:32;6.82;;;3.40;;
10335;SDS011;5213;53.548;9.930;2023-06-10T10:40:58;4.80;;;3.78;;
10335;SDS011;5213;53.548;9.930;2023-06-10T10:43:26;4.97;;;3.40;;
10335;SDS011;5213;53.548;9.930;2023-06-10T10:46:02;7.63;;;3.63;;
10335;SDS011;5213;53.548;9.930;2023-06-10T10:48:33;5.10;;;3.33;;
10335;SDS011;5213;53.548;9.930;2023-06-10T10:51:00;4.78;;;3.30;;
10335;SDS011;5213;53.548;9.930;2023-06-10T10:53:26;6.00;;;3.15;;
10335;SDS011;5213;53.548;9.930;2023-06-10T10:56:05;8.30;;;3.55;;
10335;SDS011;5213;53.548;9.930;2023-06-10T10:58:33;5.32;;;3.88;;
10335;SDS011;5213;53.548;9.930;2023-06-10T11:00:59;7.65;;;3.60;;
10335;SDS011;5213;53.548;9.930;2023-06-10T11:03:29;5.95;;;3.50;;
10335;SDS011;5213;53.548;9.930;2023-06-10T11:05:58;5.55;;;3.35;;
10335;SDS011;5213;53.548;9.930;2023-06-10T11:10:54;6.10;;;3.30;;
10335;SDS011;5213;53.548;9.930;2023-06-10T11:13:20;5.70;;;3.90;;
10335;SDS011;5213;53.548;9.930;2023-06-10T11:15:48;5.70;;;3.55;;
10335;SDS011;5213;53.548;9.930;2023-06-10T11:18:19;6.95;;;3.65;;
10335;SDS011;5213;53.548;9.930;2023-06-10T11:23:24;6.47;;;3.30;;
10335;SDS011;5213;53.548;9.930;2023-06-10T11:25:51;4.80;;;3.60;;
10335;SDS011;5213;53.548;9.930;2023-06-10T11:28:17;6.20;;;3.60;;
10335;SDS011;5213;53.548;9.930;2023-06-10T11:30:44;5.20;;;3.47;;
10335;SDS011;5213;53.548;9.930;2023-06-10T11:33:13;6.30;;;3.78;;
10335;SDS011;5213;53.548;9.930;2023-06-10T11:35:40;6.78;;;3.35;;
10335;SDS011;5213;53.548;9.930;2023-06-10T11:38:06;6.78;;;3.70;;
10335;SDS011;5213;53.548;9.930;2023-06-10T11:40:32;9.77;;;3.63;;
10335;SDS011;5213;53.548;9.930;2023-06-10T11:42:59;7.20;;;3.80;;
10335;SDS011;5213;53.548;9.930;2023-06-10T11:45:25;7.03;;;4.05;;
10335;SDS011;5213;53.548;9.930;2023-06-10T11:47:55;5.53;;;3.20;;
10335;SDS011;5213;53.548;9.930;2023-06-10T11:50:31;4.15;;;3.53;;
10335;SDS011;5213;53.548;9.930;2023-06-10T11:52:58;6.35;;;3.90;;
10335;SDS011;5213;53.548;9.930;2023-06-10T11:55:25;4.63;;;3.60;;
10335;SDS011;5213;53.548;9.930;2023-06-10T11:57:51;8.85;;;4.30;;
10335;SDS011;5213;53.548;9.930;2023-06-10T12:00:22;5.78;;;4.20;;
10335;SDS011;5213;53.548;9.930;2023-06-10T12:02:57;5.20;;;4.03;;
10335;SDS011;5213;53.548;9.930;2023-06-10T12:05:23;7.35;;;4.18;;
10335;SDS011;5213;53.548;9.930;2023-06-10T12:07:49;6.40;;;4.05;;
10335;SDS011;5213;53.548;9.930;2023-06-10T12:10:15;7.15;;;4.70;;
10335;SDS011;5213;53.548;9.930;2023-06-10T12:12:41;6.00;;;3.80;;
10335;SDS011;5213;53.548;9.930;2023-06-10T12:15:08;6.25;;;4.05;;
10335;SDS011;5213;53.548;9.930;2023-06-10T12:20:03;5.40;;;4.30;;
10335;SDS011;5213;53.548;9.930;2023-06-10T12:22:39;5.53;;;4.28;;
10335;SDS011;5213;53.548;9.930;2023-06-10T12:25:06;8.52;;;4.25;;
10335;SDS011;5213;53.548;9.930;2023-06-10T12:27:32;7.50;;;4.43;;
10335;SDS011;5213;53.548;9.930;2023-06-10T12:29:59;8.70;;;4.70;;
10335;SDS011;5213;53.548;9.930;2023-06-10T12:32:39;7.38;;;4.63;;
10335;SDS011;5213;53.548;9.930;2023-06-10T12:35:06;5.55;;;4.40;;
10335;SDS011;5213;53.548;9.930;2023-06-10T12:37:32;6.60;;;4.70;;
10335;SDS011;5213;53.548;9.930;2023-06-10T12:40:00;5.50;;;4.32;;
10335;SDS011;5213;53.548;9.930;2023-06-10T12:42:27;6.78;;;4.55;;
10335;SDS011;5213;53.548;9.930;2023-06-10T12:44:54;5.60;;;4.68;;
10335;SDS011;5213;53.548;9.930;2023-06-10T12:47:28;6.68;;;4.53;;
10335;SDS011;5213;53.548;9.930;2023-06-10T12:49:54;5.43;;;4.03;;
10335;SDS011;5213;53.548;9.930;2023-06-10T12:52:21;5.72;;;4.13;;
10335;SDS011;5213;53.548;9.930;2023-06-10T12:54:47;5.97;;;4.53;;
10335;SDS011;5213;53.548;9.930;2023-06-10T12:57:13;5.93;;;4.43;;
10335;SDS011;5213;53.548;9.930;2023-06-10T12:59:39;6.57;;;4.50;;
10335;SDS011;5213;53.548;9.930;2023-06-10T13:02:07;4.90;;;4.40;;
10335;SDS011;5213;53.548;9.930;2023-06-10T13:04:33;5.25;;;4.65;;
10335;SDS011;5213;53.548;9.930;2023-06-10T13:06:59;5.28;;;4.63;;
10335;SDS011;5213;53.548;9.930;2023-06-10T13:09:25;6.15;;;3.90;;
10335;SDS011;5213;53.548;9.930;2023-06-10T13:11:52;6.38;;;4.57;;
10335;SDS011;5213;53.548;9.930;2023-06-10T13:14:18;4.05;;;3.65;;
10335;SDS011;5213;53.548;9.930;2023-06-10T13:16:45;4.80;;;4.40;;
10335;SDS011;5213;53.548;9.930;2023-06-10T13:19:11;4.75;;;3.88;;
10335;SDS011;5213;53.548;9.930;2023-06-10T13:21:37;5.65;;;4.30;;
10335;SDS011;5213;53.548;9.930;2023-06-10T13:24:03;6.88;;;4.50;;
10335;SDS011;5213;53.548;9.930;2023-06-10T13:26:29;7.10;;;4.40;;
10335;SDS011;5213;53.548;9.930;2023-06-10T13:28:55;4.82;;;4.32;;
10335;SDS011;5213;53.548;9.930;2023-06-10T13:31:21;5.95;;;4.63;;
10335;SDS011;5213;53.548;9.930;2023-06-10T13:33:47;5.30;;;4.35;;
10335;SDS011;5213;53.548;9.930;2023-06-10T13:36:14;6.05;;;4.30;;
10335;SDS011;5213;53.548;9.930;2023-06-10T13:38:40;7.10;;;4.53;;
10335;SDS011;5213;53.548;9.930;2023-06-10T13:41:06;4.90;;;4.50;;
10335;SDS011;5213;53.548;9.930;2023-06-10T13:43:32;7.22;;;4.22;;
10335;SDS011;5213;53.548;9.930;2023-06-10T13:45:58;5.97;;;4.38;;
10335;SDS011;5213;53.548;9.930;2023-06-10T13:48:25;8.15;;;4.15;;
10335;SDS011;5213;53.548;9.930;2023-06-10T13:50:51;5.55;;;4.15;;
10335;SDS011;5213;53.548;9.930;2023-06-10T13:53:17;5.88;;;4.20;;
10335;SDS011;5213;53.548;9.930;2023-06-10T13:55:43;8.15;;;4.78;;
10335;SDS011;5213;53.548;9.930;2023-06-10T13:58:09;6.55;;;3.78;;
10335;SDS011;5213;53.548;9.930;2023-06-10T14:00:35;7.03;;;4.15;;
10335;SDS011;5213;53.548;9.930;2023-06-10T14:03:01;6.47;;;4.07;;
10335;SDS011;5213;53.548;9.930;2023-06-10T14:05:28;6.28;;;3.80;;
10335;SDS011;5213;53.548;9.930;2023-06-10T14:07:54;5.57;;;3.85;;
10335;SDS011;5213;53.548;9.930;2023-06-10T14:10:21;7.55;;;3.83;;
10335;SDS011;5213;53.548;9.930;2023-06-10T14:12:47;7.35;;;3.85;;
10335;SDS011;5213;53.548;9.930;2023-06-10T14:15:14;7.53;;;3.47;;
10335;SDS011;5213;53.548;9.930;2023-06-10T14:17:40;6.78;;;3.70;;
10335;SDS011;5213;53.548;9.930;2023-06-10T14:20:06;8.35;;;3.40;;
10335;SDS011;5213;53.548;9.930;2023-06-10T14:22:32;9.13;;;4.03;;
10335;SDS011;5213;53.548;9.930;2023-06-10T14:24:58;5.53;;;3.42;;
10335;SDS011;5213;53.548;9.930;2023-06-10T14:27:24;6.80;;;3.50;;
10335;SDS011;5213;53.548;9.930;2023-06-10T14:29:50;5.78;;;3.40;;
10335;SDS011;5213;53.548;9.930;2023-06-10T14:32:16;8.05;;;3.35;;
10335;SDS011;5213;53.548;9.930;2023-06-10T14:34:42;5.97;;;3.80;;
10335;SDS011;5213;53.548;9.930;2023-06-10T14:37:09;7.93;;;4.20;;
10335;SDS011;5213;53.548;9.930;2023-06-10T14:39:36;7.18;;;3.58;;
10335;SDS011;5213;53.548;9.930;2023-06-10T14:42:02;6.88;;;4.00;;
10335;SDS011;5213;53.548;9.930;2023-06-10T14:44:28;4.78;;;3.40;;
10335;SDS011;5213;53.548;9.930;2023-06-10T14:46:54;5.38;;;3.63;;
10335;SDS011;5213;53.548;9.930;2023-06-10T14:49:20;5.32;;;3.30;;
10335;SDS011;5213;53.548;9.930;2023-06-10T14:51:46;5.25;;;3.40;;
10335;SDS011;5213;53.548;9.930;2023-06-10T14:54:14;5.70;;;3.78;;
10335;SDS011;5213;53.548;9.930;2023-06-10T14:56:40;6.28;;;3.30;;
10335;SDS011;5213;53.548;9.930;2023-06-10T14:59:06;6.72;;;4.00;;
10335;SDS011;5213;53.548;9.930;2023-06-10T15:01:32;5.28;;;3.50;;
10335;SDS011;5213;53.548;9.930;2023-06-10T15:03:59;6.80;;;3.50;;
10335;SDS011;5213;53.548;9.930;2023-06-10T15:06:25;7.65;;;3.88;;
10335;SDS011;5213;53.548;9.930;2023-06-10T15:08:51;8.52;;;4.15;;
10335;SDS011;5213;53.548;9.930;2023-06-10T15:11:17;7.28;;;4.20;;
10335;SDS011;5213;53.548;9.930;2023-06-10T15:13:43;6.65;;;4.20;;